EC7A LEDA-LESU
Flight info
| Callsign | EC7A |
|---|---|
| Flight time | 0h 19m |
| Altitude | 16000 |
| Route | OSVAK L110 REBUL |
| Aircraft | SF50/L-SDGRWY/L |
Departure
| Time | 2026-04-20 15:16 |
|---|---|
| Airport | Lleida-Alguaire Airport (LEDA) |
Arrival
| Time | 2026-04-20 15:35 |
|---|---|
| Airport | Pirineus - la Seu d'Urgel Airport (LESU) |
| Time | Latitude | Longitude | Altitude | Speed | Heading |
|---|---|---|---|---|---|
| 2026-04-20 15:03 | 41.73000 | 0.54034 | 1147 ft | 0 kts | 43° |
| 2026-04-20 15:12 | 41.73001 | 0.54036 | 1147 ft | 1 kts | 81° |
| 2026-04-20 15:12 | 41.72980 | 0.54018 | 1147 ft | 9 kts | 224° |
| 2026-04-20 15:12 | 41.72906 | 0.54057 | 1147 ft | 19 kts | 164° |
| 2026-04-20 15:12 | 41.72793 | 0.53955 | 1147 ft | 19 kts | 223° |
| 2026-04-20 15:13 | 41.72709 | 0.53850 | 1148 ft | 16 kts | 223° |
| 2026-04-20 15:13 | 41.72611 | 0.53806 | 1149 ft | 20 kts | 155° |
| 2026-04-20 15:13 | 41.72497 | 0.53962 | 1149 ft | 27 kts | 134° |
| 2026-04-20 15:13 | 41.72351 | 0.54167 | 1148 ft | 32 kts | 133° |
| 2026-04-20 15:14 | 41.72212 | 0.54364 | 1149 ft | 26 kts | 133° |
| 2026-04-20 15:14 | 41.72099 | 0.54529 | 1151 ft | 25 kts | 131° |
| 2026-04-20 15:14 | 41.72047 | 0.54646 | 1151 ft | 12 kts | 170° |
| 2026-04-20 15:14 | 41.72046 | 0.54598 | 1151 ft | 1 kts | 313° |
| 2026-04-20 15:15 | 41.72066 | 0.54569 | 1151 ft | 24 kts | 314° |
| 2026-04-20 15:15 | 41.72352 | 0.54154 | 1160 ft | 95 kts | 308° |
| 2026-04-20 15:15 | 41.72921 | 0.53363 | 1352 ft | 142 kts | 310° |
| 2026-04-20 15:15 | 41.73697 | 0.52220 | 1676 ft | 186 kts | 312° |
| 2026-04-20 15:16 | 41.74632 | 0.50940 | 2448 ft | 196 kts | 313° |
| 2026-04-20 15:16 | 41.75613 | 0.49622 | 3288 ft | 201 kts | 314° |
| 2026-04-20 15:16 | 41.76767 | 0.48630 | 4311 ft | 199 kts | 343° |
| 2026-04-20 15:16 | 41.78165 | 0.48786 | 5123 ft | 207 kts | 15° |
| 2026-04-20 15:17 | 41.79495 | 0.49502 | 5989 ft | 209 kts | 34° |
| 2026-04-20 15:17 | 41.80207 | 0.51171 | 6835 ft | 215 kts | 82° |
| 2026-04-20 15:17 | 41.79802 | 0.53022 | 7673 ft | 214 kts | 130° |
| 2026-04-20 15:17 | 41.78535 | 0.53904 | 8530 ft | 207 kts | 179° |
| 2026-04-20 15:18 | 41.77125 | 0.53866 | 9415 ft | 204 kts | 173° |
| 2026-04-20 15:18 | 41.75956 | 0.54930 | 10225 ft | 213 kts | 124° |
| 2026-04-20 15:18 | 41.75726 | 0.56839 | 11002 ft | 208 kts | 75° |
| 2026-04-20 15:18 | 41.76534 | 0.58307 | 11722 ft | 192 kts | 37° |
| 2026-04-20 15:19 | 41.77201 | 0.59810 | 12382 ft | 193 kts | 82° |
| 2026-04-20 15:19 | 41.77248 | 0.61572 | 13047 ft | 188 kts | 83° |
| 2026-04-20 15:19 | 41.77603 | 0.63240 | 13690 ft | 188 kts | 66° |
| 2026-04-20 15:19 | 41.78072 | 0.64834 | 14262 ft | 185 kts | 67° |
| 2026-04-20 15:20 | 41.78500 | 0.66446 | 14798 ft | 185 kts | 68° |
| 2026-04-20 15:20 | 41.78947 | 0.68129 | 15065 ft | 202 kts | 67° |
| 2026-04-20 15:20 | 41.79429 | 0.69939 | 15483 ft | 207 kts | 68° |
| 2026-04-20 15:20 | 41.79909 | 0.71758 | 15917 ft | 212 kts | 67° |
| 2026-04-20 15:21 | 41.80439 | 0.73735 | 15939 ft | 237 kts | 68° |
| 2026-04-20 15:21 | 41.81014 | 0.75909 | 15937 ft | 256 kts | 68° |
| 2026-04-20 15:21 | 41.81585 | 0.78086 | 15438 ft | 245 kts | 68° |
| 2026-04-20 15:21 | 41.82163 | 0.80273 | 14487 ft | 251 kts | 68° |
| 2026-04-20 15:22 | 41.82750 | 0.82487 | 13633 ft | 251 kts | 69° |
| 2026-04-20 15:22 | 41.83328 | 0.84684 | 12311 ft | 260 kts | 69° |
| 2026-04-20 15:22 | 41.83944 | 0.87018 | 10814 ft | 269 kts | 69° |
| 2026-04-20 15:22 | 41.84570 | 0.89397 | 9319 ft | 271 kts | 70° |
| 2026-04-20 15:23 | 41.85187 | 0.91754 | 8448 ft | 254 kts | 70° |
| 2026-04-20 15:23 | 41.85778 | 0.94005 | 8555 ft | 264 kts | 70° |
| 2026-04-20 15:23 | 41.86383 | 0.96299 | 8299 ft | 252 kts | 70° |
| 2026-04-20 15:23 | 41.86953 | 0.98485 | 8000 ft | 246 kts | 70° |
| 2026-04-20 15:24 | 41.87536 | 1.00711 | 8003 ft | 255 kts | 70° |
| 2026-04-20 15:24 | 41.88132 | 1.02989 | 8002 ft | 260 kts | 69° |
| 2026-04-20 15:24 | 41.88725 | 1.05257 | 8004 ft | 262 kts | 70° |
| 2026-04-20 15:24 | 41.89326 | 1.07555 | 8006 ft | 261 kts | 70° |
| 2026-04-20 15:25 | 41.89928 | 1.09860 | 7999 ft | 262 kts | 70° |
| 2026-04-20 15:25 | 41.90528 | 1.12158 | 7999 ft | 261 kts | 70° |
| 2026-04-20 15:25 | 41.91129 | 1.14465 | 8000 ft | 262 kts | 70° |
| 2026-04-20 15:25 | 41.91731 | 1.16782 | 7998 ft | 262 kts | 70° |
| 2026-04-20 15:26 | 41.92332 | 1.19092 | 7999 ft | 263 kts | 70° |
| 2026-04-20 15:26 | 41.93070 | 1.21326 | 7993 ft | 262 kts | 56° |
| 2026-04-20 15:26 | 41.94252 | 1.23163 | 7984 ft | 259 kts | 39° |
| 2026-04-20 15:26 | 41.95745 | 1.24463 | 7983 ft | 255 kts | 22° |
| 2026-04-20 15:27 | 41.97389 | 1.25223 | 7986 ft | 253 kts | 14° |
| 2026-04-20 15:27 | 41.99070 | 1.25923 | 7968 ft | 254 kts | 14° |
| 2026-04-20 15:27 | 42.00763 | 1.26651 | 7882 ft | 258 kts | 14° |
| 2026-04-20 15:27 | 42.02526 | 1.27402 | 7774 ft | 271 kts | 14° |
| 2026-04-20 15:28 | 42.04319 | 1.28162 | 7651 ft | 263 kts | 14° |
| 2026-04-20 15:28 | 42.05999 | 1.28879 | 7524 ft | 242 kts | 15° |
| 2026-04-20 15:28 | 42.07533 | 1.29535 | 7394 ft | 220 kts | 14° |
| 2026-04-20 15:28 | 42.08918 | 1.30115 | 7271 ft | 198 kts | 15° |
| 2026-04-20 15:29 | 42.10134 | 1.30634 | 7162 ft | 167 kts | 15° |
| 2026-04-20 15:29 | 42.11170 | 1.31078 | 7024 ft | 155 kts | 12° |
| 2026-04-20 15:29 | 42.12220 | 1.31510 | 6910 ft | 159 kts | 14° |
| 2026-04-20 15:29 | 42.13276 | 1.31967 | 6793 ft | 160 kts | 13° |
| 2026-04-20 15:30 | 42.14350 | 1.32429 | 6676 ft | 163 kts | 14° |
| 2026-04-20 15:30 | 42.15446 | 1.32811 | 6524 ft | 164 kts | 9° |
| 2026-04-20 15:30 | 42.16551 | 1.33065 | 6329 ft | 158 kts | 2° |
| 2026-04-20 15:30 | 42.17644 | 1.33239 | 6130 ft | 158 kts | 1° |
| 2026-04-20 15:31 | 42.18740 | 1.33416 | 5937 ft | 159 kts | 5° |
| 2026-04-20 15:31 | 42.19826 | 1.33562 | 5787 ft | 155 kts | 2° |
| 2026-04-20 15:31 | 42.20881 | 1.33833 | 5624 ft | 155 kts | 10° |
| 2026-04-20 15:31 | 42.21951 | 1.34174 | 5484 ft | 164 kts | 11° |
| 2026-04-20 15:32 | 42.23063 | 1.34526 | 5347 ft | 165 kts | 10° |
| 2026-04-20 15:32 | 42.24179 | 1.34885 | 5203 ft | 164 kts | 11° |
| 2026-04-20 15:32 | 42.25289 | 1.35225 | 4998 ft | 165 kts | 11° |
| 2026-04-20 15:32 | 42.26411 | 1.35558 | 4680 ft | 164 kts | 15° |
| 2026-04-20 15:33 | 42.27480 | 1.36061 | 4334 ft | 162 kts | 19° |
| 2026-04-20 15:33 | 42.28527 | 1.36580 | 3958 ft | 160 kts | 22° |
| 2026-04-20 15:33 | 42.29470 | 1.37302 | 3758 ft | 147 kts | 31° |
| 2026-04-20 15:33 | 42.30234 | 1.37968 | 3624 ft | 120 kts | 28° |
| 2026-04-20 15:34 | 42.30925 | 1.38518 | 3416 ft | 111 kts | 29° |
| 2026-04-20 15:34 | 42.31563 | 1.39029 | 3201 ft | 106 kts | 28° |
| 2026-04-20 15:34 | 42.32197 | 1.39487 | 3003 ft | 101 kts | 31° |
| 2026-04-20 15:34 | 42.32781 | 1.39978 | 2805 ft | 95 kts | 34° |
| 2026-04-20 15:35 | 42.33326 | 1.40431 | 2704 ft | 97 kts | 32° |
| 2026-04-20 15:35 | 42.33879 | 1.40875 | 2639 ft | 85 kts | 32° |
| 2026-04-20 15:35 | 42.34263 | 1.41193 | 2634 ft | 45 kts | 30° |
| 2026-04-20 15:35 | 42.34485 | 1.41405 | 2634 ft | 34 kts | 54° |
| 2026-04-20 15:36 | 42.34592 | 1.41494 | 2634 ft | 18 kts | 278° |
| 2026-04-20 15:36 | 42.34496 | 1.41383 | 2634 ft | 20 kts | 210° |
| 2026-04-20 15:36 | 42.34351 | 1.41265 | 2634 ft | 29 kts | 210° |
| 2026-04-20 15:36 | 42.34158 | 1.41108 | 2634 ft | 37 kts | 211° |
| 2026-04-20 15:37 | 42.33916 | 1.40913 | 2634 ft | 42 kts | 210° |
| 2026-04-20 15:37 | 42.33736 | 1.40650 | 2634 ft | 27 kts | 232° |
| 2026-04-20 15:37 | 42.33652 | 1.40535 | 2634 ft | 10 kts | 299° |
| 2026-04-20 15:37 | 42.33707 | 1.40540 | 2634 ft | 11 kts | 30° |
| 2026-04-20 15:38 | 42.33756 | 1.40513 | 2634 ft | 10 kts | 259° |
| 2026-04-20 15:38 | 42.33748 | 1.40447 | 2634 ft | 0 kts | 261° |